Time;durP1;ratioP1;P1;durP2;ratioP2;P2;SDS_P1;SDS_P2;PMS_P1;PMS_P2;Temp;Humidity;BMP_temperature;BMP_pressure;BME280_temperature;BME280_humidity;BME280_pressure;Samples;Min_cycle;Max_cycle;Signal;HPM_P1;HPM_P2
2022/08/28 00:00:15;;;;;;;7.13;5.40;;;24.80;54.80;;;;;;5055422;28;20467;-87
2022/08/28 00:02:44;;;;;;;5.70;5.00;;;24.70;54.80;;;;;;5047388;28;20450;-88
2022/08/28 00:05:14;;;;;;;6.73;4.73;;;24.60;54.50;;;;;;5070475;28;20461;-87
2022/08/28 00:07:41;;;;;;;6.03;5.50;;;24.60;54.50;;;;;;5036558;28;20988;-87
2022/08/28 00:10:13;;;;;;;9.00;5.53;;;24.60;56.00;;;;;;5058845;28;20451;-89
2022/08/28 00:12:40;;;;;;;7.80;5.63;;;24.50;55.50;;;;;;5076734;28;20455;-87
2022/08/28 00:15:11;;;;;;;5.93;5.33;;;24.30;54.90;;;;;;5061279;28;20505;-88
2022/08/28 00:17:39;;;;;;;5.90;4.80;;;24.30;55.90;;;;;;5058423;28;20446;-88
2022/08/28 00:20:09;;;;;;;6.73;4.90;;;24.30;55.30;;;;;;5046726;28;21182;-87
2022/08/28 00:22:38;;;;;;;5.37;4.73;;;24.40;55.70;;;;;;5076422;28;20464;-87
2022/08/28 00:25:06;;;;;;;6.63;4.77;;;24.50;55.70;;;;;;5075824;28;20474;-88
2022/08/28 00:30:17;;;;;;;7.07;5.60;;;24.30;55.90;;;;;;5041077;28;20439;-87
2022/08/28 00:32:44;;;;;;;8.47;4.97;;;24.40;56.10;;;;;;5050794;28;20451;-87
2022/08/28 00:35:12;;;;;;;8.73;5.60;;;24.30;55.10;;;;;;5076109;28;20510;-88
2022/08/28 00:37:40;;;;;;;9.30;6.30;;;24.40;55.70;;;;;;5065990;28;20476;-88
2022/08/28 00:40:09;;;;;;;6.30;5.67;;;24.40;56.20;;;;;;5075147;28;20473;-88
2022/08/28 00:42:37;;;;;;;8.43;5.43;;;24.40;56.40;;;;;;5036586;28;20852;-89
2022/08/28 00:45:05;;;;;;;10.37;5.70;;;24.40;56.40;;;;;;5039234;28;20469;-89
2022/08/28 00:47:33;;;;;;;8.10;5.37;;;24.30;56.30;;;;;;5055311;28;20814;-90
2022/08/28 00:50:00;;;;;;;6.50;5.57;;;24.30;56.50;;;;;;5043698;28;20521;-88
2022/08/28 00:52:27;;;;;;;7.83;6.13;;;24.30;56.40;;;;;;5052213;28;20468;-88
2022/08/28 00:54:58;;;;;;;11.00;5.93;;;24.30;57.20;;;;;;5058452;28;20472;-89
2022/08/28 00:57:28;;;;;;;6.10;5.20;;;24.30;56.80;;;;;;5053800;28;20464;-87
2022/08/28 00:59:56;;;;;;;10.23;6.00;;;24.30;56.50;;;;;;5056885;28;20476;-87
2022/08/28 01:02:24;;;;;;;5.70;5.00;;;24.30;56.70;;;;;;5055194;28;20445;-88
2022/08/28 01:04:51;;;;;;;8.10;6.00;;;24.30;56.60;;;;;;5077371;28;20471;-87
2022/08/28 01:07:22;;;;;;;8.53;5.80;;;24.20;56.20;;;;;;5040063;28;20483;-89
2022/08/28 01:09:53;;;;;;;7.37;5.60;;;24.10;56.90;;;;;;5055715;28;20452;-88
2022/08/28 01:12:26;;;;;;;7.43;5.83;;;24.10;57.20;;;;;;5074856;28;20545;-87
2022/08/28 01:14:58;;;;;;;6.83;5.30;;;24.10;57.00;;;;;;5071640;28;20472;-88
2022/08/28 01:17:30;;;;;;;9.57;5.10;;;24.10;56.40;;;;;;5065832;28;20443;-88
2022/08/28 01:20:02;;;;;;;6.20;5.60;;;24.10;57.00;;;;;;5057862;28;21086;-87
2022/08/28 01:22:35;;;;;;;6.83;6.10;;;24.00;56.80;;;;;;5040820;28;21045;-87
2022/08/28 01:25:07;;;;;;;8.80;6.73;;;24.00;57.10;;;;;;5073322;28;20476;-88
2022/08/28 01:27:35;;;;;;;6.87;6.17;;;24.00;57.10;;;;;;5074750;28;20436;-88
2022/08/28 01:30:02;;;;;;;8.80;6.40;;;24.00;57.20;;;;;;5038376;28;20602;-90
2022/08/28 01:32:33;;;;;;;6.13;5.53;;;24.00;57.30;;;;;;5053702;28;21128;-87
2022/08/28 01:35:01;;;;;;;6.87;5.93;;;24.00;57.00;;;;;;5019451;28;20468;-87
2022/08/28 01:37:30;;;;;;;6.20;5.60;;;23.90;57.20;;;;;;5027027;28;20556;-87
2022/08/28 01:39:59;;;;;;;6.53;5.30;;;23.80;57.20;;;;;;5056328;28;20866;-88
2022/08/28 01:42:28;;;;;;;8.10;5.80;;;23.80;57.20;;;;;;5040170;28;20443;-89
2022/08/28 01:44:56;;;;;;;7.23;6.47;;;23.80;56.60;;;;;;5072510;28;21084;-87
2022/08/28 01:47:23;;;;;;;7.23;5.93;;;23.70;56.80;;;;;;5021351;28;20453;-89
2022/08/28 01:49:50;;;;;;;7.80;5.73;;;23.70;58.00;;;;;;5045063;28;20772;-88
2022/08/28 01:52:17;;;;;;;9.57;6.70;;;23.70;57.30;;;;;;5035766;28;20451;-86
2022/08/28 01:54:44;;;;;;;6.70;5.60;;;23.70;57.20;;;;;;5043510;28;20887;-88
2022/08/28 01:57:11;;;;;;;6.90;6.30;;;23.70;57.10;;;;;;5044855;28;20456;-89
2022/08/28 01:59:40;;;;;;;8.27;5.70;;;23.70;57.00;;;;;;5069837;28;20456;-88
2022/08/28 02:02:09;;;;;;;6.57;5.97;;;23.70;57.00;;;;;;5063921;28;20833;-88
2022/08/28 02:04:36;;;;;;;6.83;6.10;;;23.70;57.20;;;;;;5033478;28;20460;-87
2022/08/28 02:07:04;;;;;;;9.13;6.40;;;23.60;57.10;;;;;;5019039;28;20576;-89
2022/08/28 02:09:31;;;;;;;6.80;5.80;;;23.60;57.00;;;;;;5029702;28;20479;-89
2022/08/28 02:11:58;;;;;;;6.33;5.73;;;23.60;57.10;;;;;;5055374;28;20566;-88
2022/08/28 02:14:26;;;;;;;6.97;6.20;;;23.50;56.60;;;;;;5073745;28;20541;-88
2022/08/28 02:16:55;;;;;;;10.60;6.93;;;23.40;57.00;;;;;;5064259;28;20824;-87
2022/08/28 02:19:23;;;;;;;7.13;6.40;;;23.40;58.10;;;;;;5054685;28;21169;-87
2022/08/28 02:21:50;;;;;;;6.23;5.70;;;23.30;57.90;;;;;;5054664;28;20963;-87
2022/08/28 02:24:19;;;;;;;9.50;5.97;;;23.40;58.10;;;;;;5052452;28;20460;-86
2022/08/28 02:26:46;;;;;;;8.63;6.80;;;23.40;58.10;;;;;;5056588;28;20475;-88
2022/08/28 02:29:12;;;;;;;8.83;6.70;;;23.40;58.00;;;;;;5058185;28;20455;-87
2022/08/28 02:31:40;;;;;;;7.80;6.30;;;23.30;58.00;;;;;;5055542;28;20456;-90
2022/08/28 02:34:09;;;;;;;7.67;5.97;;;23.40;58.40;;;;;;5072333;28;20511;-88
2022/08/28 02:36:40;;;;;;;9.50;7.93;;;23.40;58.60;;;;;;5073238;28;20453;-87
2022/08/28 02:39:08;;;;;;;8.70;6.90;;;23.40;58.30;;;;;;5066768;28;21049;-87
2022/08/28 02:41:35;;;;;;;8.07;7.10;;;23.40;58.50;;;;;;5071562;28;20455;-87
2022/08/28 02:44:02;;;;;;;8.60;7.23;;;23.40;58.20;;;;;;5035403;28;20460;-90
2022/08/28 02:46:29;;;;;;;7.40;6.70;;;23.50;58.50;;;;;;5062431;28;20699;-88
2022/08/28 02:48:56;;;;;;;8.50;7.60;;;23.50;58.70;;;;;;5052928;28;20449;-87
2022/08/28 02:51:26;;;;;;;8.03;7.23;;;23.50;58.70;;;;;;5052457;28;20955;-87
2022/08/28 02:53:53;;;;;;;15.00;7.77;;;23.50;58.70;;;;;;5055665;28;20482;-87
2022/08/28 02:56:20;;;;;;;8.93;8.07;;;23.50;58.90;;;;;;5054912;28;20990;-90
2022/08/28 02:58:47;;;;;;;12.40;7.53;;;23.40;59.00;;;;;;5045291;28;20448;-88
2022/08/28 03:01:14;;;;;;;15.77;8.67;;;23.50;59.10;;;;;;5038371;28;20449;-87
2022/08/28 03:03:42;;;;;;;8.80;7.77;;;23.50;58.90;;;;;;5047848;28;20486;-88
2022/08/28 03:06:11;;;;;;;8.83;7.20;;;23.40;59.00;;;;;;5054360;28;20457;-88
2022/08/28 03:08:40;;;;;;;9.43;7.10;;;23.20;59.00;;;;;;5073082;28;20996;-87
2022/08/28 03:11:07;;;;;;;10.13;7.00;;;23.20;59.30;;;;;;5054128;28;20452;-89
2022/08/28 03:13:34;;;;;;;9.20;7.40;;;23.30;59.40;;;;;;5045108;28;20490;-87
2022/08/28 03:16:03;;;;;;;8.07;7.07;;;23.30;59.30;;;;;;5039493;28;20451;-89
2022/08/28 03:18:31;;;;;;;11.03;7.67;;;23.30;59.30;;;;;;5039687;28;20498;-87
2022/08/28 03:20:59;;;;;;;9.70;7.93;;;23.40;59.20;;;;;;5073386;28;20480;-87
2022/08/28 03:23:25;;;;;;;9.87;7.53;;;23.40;59.00;;;;;;5053474;28;20964;-88
2022/08/28 03:25:55;;;;;;;9.70;7.57;;;23.40;59.20;;;;;;5070431;28;20460;-87
2022/08/28 03:28:23;;;;;;;8.87;7.60;;;23.30;59.40;;;;;;5072546;28;20971;-87
2022/08/28 03:30:50;;;;;;;13.43;7.97;;;23.30;59.70;;;;;;5030430;28;20459;-90
2022/08/28 03:33:18;;;;;;;9.00;8.10;;;23.30;59.90;;;;;;5038970;28;20503;-86
2022/08/28 03:35:45;;;;;;;10.23;8.07;;;23.30;60.10;;;;;;5056643;28;20463;-88
2022/08/28 03:38:12;;;;;;;9.00;8.03;;;23.30;60.00;;;;;;5071672;28;20459;-87
2022/08/28 03:40:41;;;;;;;11.90;8.30;;;23.40;60.10;;;;;;5055247;28;20459;-89
2022/08/28 03:43:12;;;;;;;10.00;7.77;;;23.40;59.90;;;;;;5056445;28;20444;-89
2022/08/28 03:45:39;;;;;;;10.33;7.73;;;23.30;59.90;;;;;;5037321;28;20465;-87
2022/08/28 03:48:07;;;;;;;11.23;9.07;;;23.30;59.80;;;;;;5044699;28;20455;-89
2022/08/28 03:50:34;;;;;;;10.03;8.83;;;23.40;60.10;;;;;;5079157;28;20451;-88
2022/08/28 03:53:01;;;;;;;10.00;8.43;;;23.20;59.90;;;;;;5075987;28;20440;-89
2022/08/28 03:55:29;;;;;;;16.70;8.50;;;23.20;60.40;;;;;;5053189;28;20472;-88
2022/08/28 03:57:56;;;;;;;11.80;9.60;;;23.20;60.40;;;;;;5057576;28;20948;-88
2022/08/28 04:00:24;;;;;;;16.70;9.53;;;23.30;60.50;;;;;;5044007;28;20459;-88
2022/08/28 04:02:52;;;;;;;11.23;9.27;;;23.30;60.20;;;;;;5057168;28;20470;-89
2022/08/28 04:05:19;;;;;;;10.93;9.10;;;23.30;60.30;;;;;;5049145;28;20837;-88
2022/08/28 04:07:47;;;;;;;13.97;8.67;;;23.30;60.30;;;;;;5059696;28;20441;-88
2022/08/28 04:10:14;;;;;;;10.67;8.93;;;23.40;60.30;;;;;;5050201;28;20504;-88
2022/08/28 04:12:42;;;;;;;11.53;8.63;;;23.30;60.10;;;;;;5059102;28;20436;-89
2022/08/28 04:15:10;;;;;;;11.53;8.43;;;23.40;60.40;;;;;;5054629;28;20464;-88
2022/08/28 04:17:40;;;;;;;12.43;8.60;;;23.40;60.00;;;;;;5043386;28;20572;-88
2022/08/28 04:20:09;;;;;;;11.93;8.30;;;23.30;59.90;;;;;;5078109;28;20436;-87
2022/08/28 04:22:37;;;;;;;8.50;7.60;;;23.30;60.10;;;;;;5057546;28;20439;-88
2022/08/28 04:25:04;;;;;;;12.50;9.17;;;23.30;59.90;;;;;;5073866;28;20486;-88
2022/08/28 04:27:32;;;;;;;13.20;8.70;;;23.40;60.00;;;;;;5049805;28;23020;-89
2022/08/28 04:29:59;;;;;;;10.60;8.83;;;23.30;60.10;;;;;;5074435;28;20445;-87
2022/08/28 04:32:26;;;;;;;9.70;8.60;;;23.40;60.10;;;;;;5058094;28;20453;-89
2022/08/28 04:34:54;;;;;;;18.57;9.30;;;23.40;60.00;;;;;;5056551;28;20958;-87
2022/08/28 04:37:21;;;;;;;12.60;8.37;;;23.30;60.30;;;;;;5058022;28;20449;-88
2022/08/28 04:39:48;;;;;;;9.27;8.20;;;23.30;60.10;;;;;;5042596;28;20494;-87
2022/08/28 04:42:15;;;;;;;15.07;8.97;;;23.30;60.00;;;;;;5065266;28;20463;-87
2022/08/28 04:44:43;;;;;;;10.27;7.37;;;23.30;60.00;;;;;;5056598;28;20521;-90
2022/08/28 04:47:09;;;;;;;12.37;8.17;;;23.40;60.10;;;;;;5061642;28;20455;-87
2022/08/28 04:49:37;;;;;;;10.87;8.60;;;23.40;60.40;;;;;;5064833;28;21723;-88
2022/08/28 04:52:06;;;;;;;9.33;7.80;;;23.50;60.40;;;;;;5066501;28;20452;-88
2022/08/28 04:54:34;;;;;;;10.37;8.87;;;23.50;60.40;;;;;;5056755;28;20487;-90
2022/08/28 04:57:00;;;;;;;9.73;8.50;;;23.50;60.20;;;;;;5074159;28;21046;-89
2022/08/28 04:59:28;;;;;;;9.57;8.20;;;23.50;60.20;;;;;;5057795;28;20919;-89
2022/08/28 05:01:55;;;;;;;10.00;8.20;;;23.50;60.00;;;;;;5037738;28;21035;-87
2022/08/28 05:04:22;;;;;;;9.13;8.17;;;23.60;60.10;;;;;;5059341;28;20468;-87
2022/08/28 05:06:49;;;;;;;12.63;8.43;;;23.60;60.00;;;;;;5052249;28;20475;-88
2022/08/28 05:09:19;;;;;;;10.50;8.10;;;23.60;59.90;;;;;;5055707;28;20456;-89
2022/08/28 05:11:47;;;;;;;10.53;8.33;;;23.60;59.70;;;;;;5051687;28;20437;-88
2022/08/28 05:14:15;;;;;;;9.70;8.17;;;23.60;59.30;;;;;;5037653;28;20468;-88
2022/08/28 05:16:44;;;;;;;10.70;8.00;;;23.50;59.50;;;;;;5066588;28;20452;-89
2022/08/28 05:19:12;;;;;;;12.47;8.97;;;23.50;60.00;;;;;;5036480;28;21156;-88
2022/08/28 05:21:40;;;;;;;11.73;8.50;;;23.50;60.00;;;;;;5051622;28;20452;-89
2022/08/28 05:24:08;;;;;;;12.57;9.20;;;23.50;60.20;;;;;;5040350;28;20476;-88
2022/08/28 05:26:37;;;;;;;11.23;8.30;;;23.50;60.40;;;;;;5070815;28;20955;-91
2022/08/28 05:29:05;;;;;;;11.80;9.10;;;23.50;60.10;;;;;;5051752;28;20453;-87
2022/08/28 05:31:33;;;;;;;12.27;9.60;;;23.50;60.20;;;;;;5049912;28;20467;-87
2022/08/28 05:34:01;;;;;;;13.37;9.77;;;23.60;60.30;;;;;;5027651;28;20476;-88
2022/08/28 05:36:31;;;;;;;10.40;8.83;;;23.60;60.30;;;;;;5051476;28;20459;-88
2022/08/28 05:38:58;;;;;;;9.73;7.93;;;23.50;59.80;;;;;;5052924;28;20874;-88
2022/08/28 05:41:29;;;;;;;12.43;8.40;;;23.50;59.90;;;;;;5050251;28;20475;-86
2022/08/28 05:44:00;;;;;;;13.70;9.90;;;23.60;59.80;;;;;;5027954;28;20473;-88
2022/08/28 05:46:28;;;;;;;14.00;10.00;;;23.60;59.90;;;;;;5066343;28;20455;-89
2022/08/28 05:48:56;;;;;;;13.30;8.17;;;23.70;60.20;;;;;;5048696;28;21225;-87
2022/08/28 05:51:25;;;;;;;11.57;9.17;;;23.70;60.00;;;;;;5040991;28;20891;-87
2022/08/28 05:53:53;;;;;;;9.00;8.10;;;23.80;59.60;;;;;;5036830;28;20477;-88
2022/08/28 05:56:22;;;;;;;10.60;8.53;;;23.80;59.50;;;;;;5065386;28;20467;-90
2022/08/28 05:58:50;;;;;;;11.33;8.67;;;23.80;59.60;;;;;;5070699;28;21113;-86
2022/08/28 06:01:20;;;;;;;11.27;9.00;;;23.80;59.50;;;;;;5051052;28;20451;-88
2022/08/28 06:03:53;;;;;;;12.60;10.10;;;23.80;59.90;;;;;;5050256;28;20476;-89
2022/08/28 06:06:20;;;;;;;14.63;9.27;;;23.80;59.30;;;;;;5035102;28;20442;-91
2022/08/28 06:08:47;;;;;;;17.17;9.50;;;23.80;59.50;;;;;;5041135;28;20563;-88
2022/08/28 06:11:14;;;;;;;10.87;8.00;;;23.80;59.60;;;;;;5039691;28;20447;-88
2022/08/28 06:13:41;;;;;;;10.07;8.70;;;23.80;59.50;;;;;;5026824;28;21322;-89
2022/08/28 06:16:10;;;;;;;12.60;8.57;;;23.90;59.50;;;;;;5040202;28;20508;-88
2022/08/28 06:18:39;;;;;;;13.93;9.03;;;23.90;59.80;;;;;;5032792;28;20454;-88
2022/08/28 06:21:06;;;;;;;11.93;9.07;;;23.90;59.50;;;;;;5036491;28;20453;-88
2022/08/28 06:23:33;;;;;;;11.43;9.63;;;24.00;59.60;;;;;;5049508;28;20539;-88
2022/08/28 06:26:00;;;;;;;12.57;7.33;;;24.10;59.50;;;;;;5051085;28;20940;-88
2022/08/28 06:28:28;;;;;;;12.37;9.10;;;24.10;59.10;;;;;;5070038;28;20448;-89
2022/08/28 06:30:55;;;;;;;12.13;8.63;;;24.00;58.00;;;;;;5043115;28;20834;-88
2022/08/28 06:33:23;;;;;;;8.00;7.20;;;24.10;59.30;;;;;;5026645;28;21265;-88
2022/08/28 06:35:54;;;;;;;7.53;6.13;;;24.10;58.40;;;;;;5052815;28;20546;-88
2022/08/28 06:38:23;;;;;;;13.67;7.30;;;24.10;58.10;;;;;;5054293;28;20456;-88
2022/08/28 06:40:52;;;;;;;7.33;6.50;;;24.10;58.00;;;;;;5055536;28;20453;-88
2022/08/28 06:43:21;;;;;;;9.60;7.27;;;24.00;58.30;;;;;;5059070;28;20451;-90
2022/08/28 06:45:53;;;;;;;7.67;6.87;;;24.10;58.50;;;;;;5043040;28;20518;-88
2022/08/28 06:48:22;;;;;;;8.53;6.67;;;24.20;58.40;;;;;;5053177;28;21057;-88
2022/08/28 06:50:51;;;;;;;7.17;6.47;;;24.40;58.20;;;;;;5037256;28;20832;-89
2022/08/28 06:53:22;;;;;;;11.87;7.20;;;24.40;57.30;;;;;;5039796;28;20460;-89
2022/08/28 06:56:00;;;;;;;14.70;7.40;;;24.30;57.20;;;;;;5027821;28;20468;-90
2022/08/28 06:58:29;;;;;;;7.80;6.50;;;24.30;57.10;;;;;;5023458;28;20450;-89
2022/08/28 07:01:09;;;;;;;8.20;6.53;;;24.50;56.90;;;;;;5038874;28;20447;-87
2022/08/28 07:03:36;;;;;;;8.30;6.10;;;24.50;56.60;;;;;;5044359;28;20449;-88
2022/08/28 07:06:06;;;;;;;7.40;6.70;;;24.60;57.20;;;;;;5036249;28;20440;-87
2022/08/28 07:08:35;;;;;;;7.20;6.20;;;24.70;57.00;;;;;;5072623;28;20470;-88
2022/08/28 07:11:10;;;;;;;10.70;6.83;;;24.70;56.50;;;;;;5072439;28;20468;-88
2022/08/28 07:13:37;;;;;;;10.60;7.03;;;24.70;56.50;;;;;;5056286;28;20819;-88
2022/08/28 07:16:04;;;;;;;8.47;6.30;;;24.80;56.70;;;;;;5038374;28;20806;-88
2022/08/28 07:18:31;;;;;;;7.10;6.40;;;24.90;56.50;;;;;;5072600;28;20938;-88
2022/08/28 07:21:00;;;;;;;12.50;6.23;;;24.80;56.00;;;;;;5041383;28;20453;-89
2022/08/28 07:23:28;;;;;;;8.37;6.40;;;24.70;56.30;;;;;;5053494;28;20452;-88
2022/08/28 07:25:56;;;;;;;6.57;5.63;;;24.80;56.20;;;;;;5069824;28;20453;-88
2022/08/28 07:28:24;;;;;;;6.17;5.60;;;25.00;56.30;;;;;;5025861;28;20539;-87
2022/08/28 07:30:58;;;;;;;7.13;6.10;;;25.10;55.60;;;;;;5028730;28;20535;-90
2022/08/28 07:33:26;;;;;;;9.40;6.90;;;25.20;55.70;;;;;;5020369;28;20462;-88
2022/08/28 07:35:53;;;;;;;6.30;4.83;;;25.20;55.90;;;;;;5063658;28;20468;-88
2022/08/28 07:38:21;;;;;;;9.50;6.80;;;25.30;55.60;;;;;;5041024;28;20453;-88
2022/08/28 07:40:48;;;;;;;7.83;5.47;;;25.30;56.10;;;;;;5035231;28;20453;-88
2022/08/28 07:46:02;;;;;;;9.73;6.50;;;25.40;55.20;;;;;;5038735;28;20804;-88
2022/08/28 07:48:30;;;;;;;6.23;5.43;;;25.40;54.90;;;;;;5050501;28;20455;-88
2022/08/28 07:50:57;;;;;;;8.13;5.47;;;25.40;54.70;;;;;;5051248;28;20456;-88
2022/08/28 07:53:24;;;;;;;5.93;5.30;;;25.40;55.00;;;;;;5042504;28;20960;-88
2022/08/28 07:55:52;;;;;;;10.40;5.20;;;25.30;54.10;;;;;;5051973;28;20843;-89
2022/08/28 07:58:20;;;;;;;9.93;6.17;;;25.30;54.20;;;;;;5035043;28;20463;-88
2022/08/28 08:00:47;;;;;;;6.40;5.50;;;25.50;54.50;;;;;;5054288;28;20453;-88
2022/08/28 08:03:15;;;;;;;7.70;6.10;;;25.40;55.00;;;;;;5052643;28;20453;-89
2022/08/28 08:05:42;;;;;;;9.67;5.37;;;25.30;54.00;;;;;;5070234;28;20959;-88
2022/08/28 08:08:08;;;;;;;7.93;5.57;;;25.40;54.90;;;;;;5054133;28;20471;-88
2022/08/28 08:10:35;;;;;;;8.13;5.73;;;25.50;55.00;;;;;;5052730;28;20501;-90
2022/08/28 08:13:02;;;;;;;6.63;5.10;;;25.60;54.40;;;;;;5055662;28;20444;-86
2022/08/28 08:15:33;;;;;;;5.10;4.60;;;25.50;53.90;;;;;;5050804;28;20493;-87
2022/08/28 08:18:00;;;;;;;11.93;5.07;;;25.70;53.50;;;;;;5051699;28;20463;-88
2022/08/28 08:20:27;;;;;;;7.60;5.20;;;25.60;52.90;;;;;;5047668;28;20474;-87
2022/08/28 08:22:54;;;;;;;5.97;4.90;;;25.70;53.40;;;;;;5048441;28;20452;-88
2022/08/28 08:25:21;;;;;;;5.90;4.50;;;25.70;52.70;;;;;;5067575;28;20476;-87
2022/08/28 08:27:49;;;;;;;6.20;5.43;;;25.70;51.50;;;;;;5066262;28;20462;-88
2022/08/28 08:30:17;;;;;;;10.53;5.40;;;25.70;52.30;;;;;;5052809;28;20452;-88
2022/08/28 08:32:45;;;;;;;6.70;4.47;;;25.80;53.10;;;;;;5070213;28;20444;-88
2022/08/28 08:35:12;;;;;;;5.33;4.83;;;25.80;50.00;;;;;;5053672;28;20480;-86
2022/08/28 08:37:39;;;;;;;7.93;5.37;;;25.80;52.70;;;;;;5054082;28;21435;-88
2022/08/28 08:40:07;;;;;;;12.50;5.43;;;25.80;51.50;;;;;;5074723;28;20452;-87
2022/08/28 08:42:36;;;;;;;6.70;5.00;;;25.80;51.80;;;;;;5071893;28;20472;-87
2022/08/28 08:45:06;;;;;;;6.40;4.80;;;25.90;50.70;;;;;;5046516;28;20460;-88
2022/08/28 08:47:38;;;;;;;5.07;4.57;;;26.00;51.00;;;;;;5043762;28;21046;-88
2022/08/28 08:50:10;;;;;;;11.73;5.20;;;26.00;51.10;;;;;;5070457;28;20444;-88
2022/08/28 08:52:47;;;;;;;5.87;4.90;;;26.10;50.60;;;;;;5072511;28;20457;-88
2022/08/28 08:55:24;;;;;;;7.93;5.23;;;26.20;51.20;;;;;;5047968;28;20947;-89
2022/08/28 08:58:02;;;;;;;10.37;5.40;;;26.30;49.40;;;;;;5037929;28;20444;-88
2022/08/28 09:00:32;;;;;;;6.77;4.77;;;26.40;51.50;;;;;;5052637;28;20489;-88
2022/08/28 09:03:06;;;;;;;8.10;4.97;;;26.50;50.10;;;;;;5053820;28;20441;-88
2022/08/28 09:05:47;;;;;;;9.33;5.53;;;26.70;50.60;;;;;;5052143;28;20926;-87
2022/08/28 09:08:24;;;;;;;7.70;5.27;;;26.70;49.80;;;;;;5068898;28;20448;-88
2022/08/28 09:10:59;;;;;;;7.20;4.90;;;26.70;48.90;;;;;;5053547;28;20436;-88
2022/08/28 09:13:36;;;;;;;9.80;4.97;;;26.70;50.10;;;;;;5051219;28;20448;-89
2022/08/28 09:16:13;;;;;;;10.00;5.97;;;26.70;50.10;;;;;;5050391;28;20502;-90
2022/08/28 09:18:41;;;;;;;8.43;5.90;;;26.60;48.70;;;;;;5070916;28;20471;-87
2022/08/28 09:21:10;;;;;;;11.37;5.57;;;26.70;48.60;;;;;;5041372;28;20450;-89
2022/08/28 09:23:37;;;;;;;9.07;5.63;;;26.80;48.70;;;;;;5060436;28;20448;-90
2022/08/28 09:26:10;;;;;;;8.30;5.00;;;26.70;47.60;;;;;;5059228;28;21285;-89
2022/08/28 09:28:40;;;;;;;10.30;5.30;;;26.70;48.70;;;;;;5056425;28;20531;-89
2022/08/28 09:31:10;;;;;;;6.53;4.53;;;27.00;49.00;;;;;;5052027;28;20452;-89
2022/08/28 09:33:40;;;;;;;9.60;4.87;;;27.10;47.40;;;;;;5049656;28;20460;-89
2022/08/28 09:36:26;;;;;;;7.40;5.17;;;27.30;48.20;;;;;;5051177;28;20645;-88
2022/08/28 09:39:10;;;;;;;6.30;5.40;;;27.40;46.00;;;;;;5067168;28;20448;-89
2022/08/28 09:44:26;;;;;;;7.33;5.80;;;27.70;47.50;;;;;;5036780;28;20466;-90
2022/08/28 09:46:53;;;;;;;13.50;5.53;;;27.80;48.20;;;;;;5049900;28;20448;-92
2022/08/28 09:49:26;;;;;;;6.53;4.70;;;27.80;46.90;;;;;;5032299;28;20480;-92
2022/08/28 09:51:56;;;;;;;8.83;5.00;;;27.70;45.80;;;;;;5045253;28;20479;-88
2022/08/28 09:54:30;;;;;;;12.90;5.53;;;27.30;45.90;;;;;;5067353;28;20483;-89
2022/08/28 09:56:58;;;;;;;8.97;5.03;;;27.20;47.60;;;;;;5066751;28;20463;-89
2022/08/28 09:59:27;;;;;;;6.07;4.80;;;27.40;47.10;;;;;;5047976;28;20466;-86
2022/08/28 10:02:09;;;;;;;8.87;5.73;;;27.30;47.40;;;;;;5036057;28;20453;-87
2022/08/28 10:04:51;;;;;;;5.90;5.30;;;27.80;47.90;;;;;;5036046;28;20475;-87
2022/08/28 10:07:26;;;;;;;12.40;5.63;;;28.30;46.60;;;;;;5066851;28;20452;-89
2022/08/28 10:10:02;;;;;;;6.20;4.83;;;28.50;44.40;;;;;;5067968;28;20448;-89
2022/08/28 10:12:40;;;;;;;8.33;4.67;;;28.70;44.50;;;;;;5069926;28;20462;-87
2022/08/28 10:15:15;;;;;;;7.90;5.30;;;28.70;42.50;;;;;;5048680;28;20488;-87
2022/08/28 10:17:54;;;;;;;7.57;4.97;;;28.50;45.10;;;;;;5069140;28;20592;-88
2022/08/28 10:20:39;;;;;;;8.40;4.97;;;28.70;44.40;;;;;;5057689;28;20449;-88
2022/08/28 10:23:15;;;;;;;6.10;4.93;;;28.80;43.90;;;;;;5068221;28;20458;-87
2022/08/28 10:25:52;;;;;;;6.97;5.20;;;28.80;43.60;;;;;;5050507;28;21077;-90
2022/08/28 10:28:33;;;;;;;11.43;5.20;;;28.60;43.90;;;;;;5038575;28;20450;-87
2022/08/28 10:31:09;;;;;;;8.60;5.03;;;28.40;43.20;;;;;;5048694;28;21031;-88
2022/08/28 10:34:01;;;;;;;7.10;5.57;;;28.50;43.10;;;;;;5068217;28;20463;-87
2022/08/28 10:36:30;;;;;;;7.63;4.77;;;28.80;44.60;;;;;;5047490;28;20524;-87
2022/08/28 10:39:14;;;;;;;5.80;5.20;;;29.30;43.70;;;;;;5037256;28;20447;-90
2022/08/28 10:41:47;;;;;;;9.00;5.10;;;29.70;42.20;;;;;;5067324;28;20459;-88
2022/08/28 10:44:19;;;;;;;6.40;5.27;;;29.60;42.50;;;;;;5066838;28;20550;-88
2022/08/28 10:46:50;;;;;;;5.23;4.40;;;29.90;42.20;;;;;;5054978;28;20824;-89
2022/08/28 10:49:25;;;;;;;5.97;4.97;;;30.30;42.30;;;;;;5051590;28;20483;-91
2022/08/28 10:51:56;;;;;;;6.00;5.07;;;30.70;41.50;;;;;;5069598;28;20553;-89
2022/08/28 10:54:30;;;;;;;5.30;4.80;;;30.80;40.60;;;;;;5067692;28;20488;-91
2022/08/28 10:57:05;;;;;;;6.40;4.73;;;30.90;39.70;;;;;;5066238;28;20550;-88
2022/08/28 10:59:34;;;;;;;7.03;4.83;;;31.00;39.90;;;;;;5069529;28;20459;-89
2022/08/28 11:02:04;;;;;;;6.00;4.87;;;31.10;38.00;;;;;;5070352;28;20456;-89
2022/08/28 11:04:31;;;;;;;7.17;4.40;;;30.80;39.90;;;;;;5033957;28;20460;-87
2022/08/28 11:07:04;;;;;;;5.40;4.27;;;30.20;38.40;;;;;;5051166;28;20440;-87
2022/08/28 11:09:35;;;;;;;4.67;4.20;;;30.00;40.30;;;;;;5030502;28;20753;-86
2022/08/28 11:12:08;;;;;;;6.67;5.10;;;29.80;40.40;;;;;;5056261;28;20453;-88
2022/08/28 11:14:39;;;;;;;7.10;4.63;;;29.70;40.80;;;;;;5066327;28;21071;-87
2022/08/28 11:17:07;;;;;;;5.47;4.60;;;29.20;41.40;;;;;;5033758;28;21007;-86
2022/08/28 11:19:59;;;;;;;7.33;4.70;;;29.20;41.90;;;;;;5070638;28;20454;-87
2022/08/28 11:22:33;;;;;;;4.40;4.00;;;29.30;41.60;;;;;;5060434;28;20454;-86
2022/08/28 11:25:11;;;;;;;6.73;4.40;;;29.30;41.70;;;;;;5069248;28;20480;-86
2022/08/28 11:27:39;;;;;;;7.23;4.70;;;29.50;41.50;;;;;;5069104;28;20458;-87
2022/08/28 11:30:31;;;;;;;4.93;4.50;;;29.70;41.90;;;;;;5053520;28;21107;-86
2022/08/28 11:33:01;;;;;;;8.33;5.50;;;29.80;41.40;;;;;;5068870;28;20892;-87
2022/08/28 11:35:49;;;;;;;5.60;4.77;;;29.60;40.90;;;;;;5068387;28;20468;-88
2022/08/28 11:39:04;;;;;;;5.30;4.20;;;29.60;41.50;;;;;;5049813;28;20993;-87
2022/08/28 11:41:35;;;;;;;5.53;4.30;;;29.60;41.70;;;;;;5005177;28;20459;-89
2022/08/28 11:44:27;;;;;;;6.63;4.17;;;29.40;41.70;;;;;;5068210;28;20468;-87
2022/08/28 11:46:57;;;;;;;5.47;4.23;;;29.50;42.20;;;;;;5052582;28;20547;-86
2022/08/28 11:49:41;;;;;;;8.47;5.40;;;29.20;40.60;;;;;;5068342;28;20444;-88
2022/08/28 11:52:22;;;;;;;10.37;5.87;;;29.30;42.20;;;;;;5053439;28;20463;-87
2022/08/28 11:54:58;;;;;;;6.13;4.60;;;29.40;42.00;;;;;;5053512;28;20962;-87
2022/08/28 11:57:41;;;;;;;5.30;4.60;;;29.40;41.20;;;;;;5048461;28;20476;-87
2022/08/28 12:00:11;;;;;;;8.50;4.73;;;29.40;41.10;;;;;;5053843;28;20459;-87
2022/08/28 12:02:47;;;;;;;5.17;4.67;;;29.50;41.90;;;;;;5078606;28;20448;-87
2022/08/28 12:05:37;;;;;;;5.60;4.33;;;29.40;40.90;;;;;;5074971;28;20570;-87
2022/08/28 12:08:04;;;;;;;7.47;5.00;;;29.50;41.10;;;;;;5045729;28;20475;-88
2022/08/28 12:10:57;;;;;;;5.40;4.47;;;29.80;41.30;;;;;;5069948;28;20451;-89
2022/08/28 12:13:51;;;;;;;5.40;4.20;;;30.30;40.60;;;;;;5070325;28;20448;-87
2022/08/28 12:16:18;;;;;;;4.20;3.80;;;30.50;38.00;;;;;;5066761;28;20480;-87
2022/08/28 12:19:02;;;;;;;4.90;4.40;;;30.30;39.10;;;;;;5045074;28;20830;-87
2022/08/28 12:21:35;;;;;;;5.77;3.93;;;30.20;39.60;;;;;;5057128;28;20455;-87
2022/08/28 12:24:05;;;;;;;5.50;3.77;;;30.00;38.70;;;;;;5072138;28;20476;-87
2022/08/28 12:26:37;;;;;;;4.80;4.10;;;30.00;39.30;;;;;;5071098;28;21192;-86
2022/08/28 12:29:17;;;;;;;6.20;4.87;;;29.90;39.30;;;;;;5047471;28;20452;-87
2022/08/28 12:32:11;;;;;;;4.50;4.00;;;29.40;40.10;;;;;;5070677;28;21052;-88
2022/08/28 12:35:07;;;;;;;5.40;4.13;;;29.50;40.60;;;;;;5056646;28;20474;-88
2022/08/28 12:37:39;;;;;;;5.40;4.90;;;29.50;40.40;;;;;;5050464;28;21143;-88
2022/08/28 12:40:15;;;;;;;7.23;4.77;;;29.60;39.70;;;;;;5071839;28;20454;-87
2022/08/28 12:42:52;;;;;;;5.53;4.17;;;29.70;40.30;;;;;;5070992;28;20911;-88
2022/08/28 12:45:28;;;;;;;7.00;4.50;;;29.50;39.00;;;;;;5036522;28;20585;-87
2022/08/28 12:48:01;;;;;;;5.87;4.40;;;29.50;39.90;;;;;;5052614;28;20444;-88
2022/08/28 12:50:32;;;;;;;8.20;4.30;;;29.60;40.10;;;;;;5057219;28;20448;-88
2022/08/28 12:53:02;;;;;;;7.00;4.47;;;29.70;40.10;;;;;;5057128;28;20448;-88
2022/08/28 12:55:30;;;;;;;6.50;4.60;;;29.80;40.30;;;;;;5067965;28;20498;-88
2022/08/28 12:57:57;;;;;;;7.07;3.70;;;29.90;40.60;;;;;;5052582;28;20473;-88
2022/08/28 13:00:30;;;;;;;5.17;4.67;;;30.00;39.70;;;;;;5052293;28;21275;-91
2022/08/28 13:02:58;;;;;;;5.17;4.30;;;29.90;39.00;;;;;;5053378;28;20441;-88
2022/08/28 13:05:31;;;;;;;6.77;4.33;;;29.90;39.60;;;;;;5072497;28;20471;-89
2022/08/28 13:08:00;;;;;;;4.27;3.87;;;29.90;39.60;;;;;;5062761;28;20822;-89